createdAt,value
2023-05-12T00:01:19.814Z,5.60
2023-05-12T00:04:04.974Z,6.72
2023-05-12T00:06:49.908Z,5.45
2023-05-12T00:09:34.762Z,4.95
2023-05-12T00:12:19.851Z,5.22
2023-05-12T00:15:05.558Z,5.10
2023-05-12T00:17:52.669Z,5.10
2023-05-12T00:20:38.116Z,5.40
2023-05-12T00:23:23.021Z,5.43
2023-05-12T00:26:07.850Z,4.80
2023-05-12T00:28:52.783Z,5.10
2023-05-12T00:31:37.726Z,4.85
2023-05-12T00:34:23.342Z,4.97
2023-05-12T00:37:08.222Z,4.38
2023-05-12T00:39:53.172Z,4.28
2023-05-12T00:42:38.380Z,4.70
2023-05-12T00:45:23.656Z,4.20
2023-05-12T00:48:08.800Z,4.35
2023-05-12T00:50:55.160Z,4.40
2023-05-12T00:53:49.350Z,4.22
2023-05-12T00:56:39.215Z,3.70
2023-05-12T00:59:24.293Z,4.38
2023-05-12T01:02:09.209Z,3.95
2023-05-12T01:04:54.350Z,4.65
2023-05-12T01:07:39.575Z,3.47
2023-05-12T01:10:24.413Z,4.35
2023-05-12T01:13:09.760Z,3.75
2023-05-12T01:15:56.253Z,3.78
2023-05-12T01:18:43.615Z,4.25
2023-05-12T01:21:28.660Z,3.90
2023-05-12T01:24:15.757Z,4.00
2023-05-12T01:27:01.902Z,4.10
2023-05-12T01:29:48.384Z,3.35
2023-05-12T01:32:33.635Z,3.80
2023-05-12T01:35:19.821Z,3.97
2023-05-12T01:38:04.831Z,4.00
2023-05-12T01:40:50.009Z,3.97
2023-05-12T01:43:34.806Z,3.95
2023-05-12T01:46:19.671Z,4.05
2023-05-12T01:49:04.543Z,4.15
2023-05-12T01:51:49.438Z,3.83
2023-05-12T01:54:34.433Z,3.80
2023-05-12T01:57:19.372Z,3.80
2023-05-12T02:00:04.941Z,3.45
2023-05-12T02:02:49.720Z,4.30
2023-05-12T02:05:34.884Z,4.07
2023-05-12T02:08:19.823Z,3.78
2023-05-12T02:11:08.593Z,3.85
2023-05-12T02:13:53.508Z,3.75
2023-05-12T02:16:39.844Z,3.70
2023-05-12T02:19:24.715Z,3.90
2023-05-12T02:22:09.611Z,3.78
2023-05-12T02:24:55.126Z,3.67
2023-05-12T02:27:40.389Z,3.70
2023-05-12T02:30:26.114Z,3.72
2023-05-12T02:33:11.728Z,3.70
2023-05-12T02:35:56.478Z,3.22
2023-05-12T02:38:41.424Z,3.90
2023-05-12T02:41:26.890Z,4.15
2023-05-12T02:44:12.189Z,3.65
2023-05-12T02:46:57.941Z,3.53
2023-05-12T02:49:43.026Z,3.90
2023-05-12T02:52:28.038Z,4.20
2023-05-12T02:55:12.993Z,3.90
2023-05-12T02:57:57.760Z,4.57
2023-05-12T03:00:42.797Z,3.60
2023-05-12T03:03:27.868Z,3.90
2023-05-12T03:06:12.717Z,3.72
2023-05-12T03:08:57.523Z,4.10
2023-05-12T03:11:42.295Z,4.22
2023-05-12T03:14:28.572Z,3.72
2023-05-12T03:17:13.889Z,4.28
2023-05-12T03:19:59.175Z,4.07
2023-05-12T03:22:44.047Z,4.10
2023-05-12T03:25:28.851Z,4.10
2023-05-12T03:28:13.595Z,4.13
2023-05-12T03:30:58.593Z,4.43
2023-05-12T03:33:43.738Z,3.80
2023-05-12T03:36:28.627Z,4.10
2023-05-12T03:39:13.535Z,4.10
2023-05-12T03:41:58.527Z,4.60
2023-05-12T03:44:43.822Z,4.70
2023-05-12T03:47:29.394Z,3.97
2023-05-12T03:50:14.789Z,4.28
2023-05-12T03:53:01.009Z,4.20
2023-05-12T03:55:46.208Z,4.60
2023-05-12T03:58:31.101Z,4.32
2023-05-12T04:01:16.129Z,4.25
2023-05-12T04:04:01.269Z,4.35
2023-05-12T04:06:46.197Z,3.95
2023-05-12T04:09:32.947Z,4.35
2023-05-12T04:12:17.659Z,4.53
2023-05-12T04:15:02.660Z,4.38
2023-05-12T04:17:47.909Z,4.18
2023-05-12T04:20:32.483Z,4.20
2023-05-12T04:23:17.559Z,4.03
2023-05-12T04:26:05.880Z,4.32
2023-05-12T04:28:51.295Z,3.90
2023-05-12T04:31:36.498Z,4.10
2023-05-12T04:34:21.917Z,4.68
2023-05-12T04:37:06.945Z,4.22
2023-05-12T04:39:51.937Z,4.05
2023-05-12T04:42:37.488Z,4.50
2023-05-12T04:45:22.823Z,4.40
2023-05-12T04:48:08.224Z,4.10
2023-05-12T04:50:53.065Z,4.68
2023-05-12T04:53:37.796Z,4.60
2023-05-12T04:56:22.853Z,4.20
2023-05-12T04:59:07.857Z,4.32
2023-05-12T05:01:53.075Z,5.07
2023-05-12T05:04:38.703Z,4.78
2023-05-12T05:07:23.728Z,4.65
2023-05-12T05:10:09.035Z,4.28
2023-05-12T05:12:53.876Z,4.40
2023-05-12T05:15:39.044Z,4.40
2023-05-12T05:18:24.662Z,4.32
2023-05-12T05:21:11.106Z,4.57
2023-05-12T05:23:56.173Z,4.82
2023-05-12T05:26:41.781Z,4.60
2023-05-12T05:29:27.484Z,4.47
2023-05-12T05:32:12.589Z,5.03
2023-05-12T05:34:58.700Z,5.20
2023-05-12T05:37:43.636Z,5.18
2023-05-12T05:40:33.901Z,4.97
2023-05-12T05:43:26.897Z,4.80
2023-05-12T05:46:12.209Z,4.68
2023-05-12T05:48:57.682Z,5.40
2023-05-12T05:51:42.469Z,4.88
2023-05-12T05:54:27.886Z,5.05
2023-05-12T05:57:12.711Z,4.70
2023-05-12T05:59:57.628Z,5.20
2023-05-12T06:02:42.639Z,5.05
2023-05-12T06:05:27.831Z,5.00
2023-05-12T06:08:13.192Z,6.22
2023-05-12T06:10:59.329Z,5.30
2023-05-12T06:13:44.373Z,5.38
2023-05-12T06:16:29.185Z,4.72
2023-05-12T06:19:14.389Z,5.18
2023-05-12T06:21:59.393Z,4.32
2023-05-12T06:24:44.517Z,5.78
2023-05-12T06:27:29.776Z,4.78
2023-05-12T06:30:16.202Z,4.53
2023-05-12T06:33:01.725Z,4.97
2023-05-12T06:35:46.779Z,5.30
2023-05-12T06:38:31.703Z,5.00
2023-05-12T06:41:16.984Z,5.70
2023-05-12T06:44:02.969Z,4.57
2023-05-12T06:46:48.785Z,4.50
2023-05-12T06:49:36.888Z,4.93
2023-05-12T06:52:23.791Z,5.65
2023-05-12T06:55:09.628Z,5.13
2023-05-12T06:57:55.944Z,5.78
2023-05-12T07:00:40.934Z,5.45
2023-05-12T07:03:27.168Z,5.63
2023-05-12T07:06:12.030Z,4.88
2023-05-12T07:08:56.913Z,5.40
2023-05-12T07:11:41.766Z,5.35
2023-05-12T07:14:26.798Z,4.85
2023-05-12T07:17:12.019Z,6.32
2023-05-12T07:19:58.159Z,6.25
2023-05-12T07:22:43.211Z,5.65
2023-05-12T07:25:28.181Z,5.78
2023-05-12T07:28:13.239Z,5.82
2023-05-12T07:30:59.214Z,6.13
2023-05-12T07:33:44.720Z,5.93
2023-05-12T07:36:30.222Z,4.80
2023-05-12T07:39:19.028Z,5.40
2023-05-12T07:42:04.510Z,5.07
2023-05-12T07:44:49.700Z,5.65
2023-05-12T07:47:34.884Z,5.55
2023-05-12T07:50:19.649Z,5.38
2023-05-12T07:53:06.158Z,5.07
2023-05-12T07:55:51.658Z,5.63
2023-05-12T07:58:36.851Z,5.30
2023-05-12T08:01:22.118Z,4.95
2023-05-12T08:04:07.201Z,5.60
2023-05-12T08:06:52.050Z,4.93
2023-05-12T08:09:36.840Z,5.10
2023-05-12T08:12:21.897Z,5.63
2023-05-12T08:15:08.330Z,5.70
2023-05-12T08:17:54.093Z,5.25
2023-05-12T08:20:39.152Z,6.10
2023-05-12T08:23:24.432Z,5.28
2023-05-12T08:26:09.317Z,5.22
2023-05-12T08:28:54.119Z,5.32
2023-05-12T08:31:39.656Z,5.15
2023-05-12T08:34:25.144Z,5.50
2023-05-12T08:37:10.504Z,5.30
2023-05-12T08:39:55.592Z,5.00
2023-05-12T08:42:44.112Z,4.63
2023-05-12T08:45:29.416Z,5.13
2023-05-12T08:48:16.014Z,4.63
2023-05-12T08:53:49.100Z,4.35
2023-05-12T08:59:25.151Z,6.00
2023-05-12T09:02:11.195Z,5.00
2023-05-12T09:04:56.205Z,5.10
2023-05-12T09:07:44.277Z,4.75
2023-05-12T09:10:34.432Z,4.85
2023-05-12T09:13:46.989Z,4.90
2023-05-12T09:16:49.379Z,4.20
2023-05-12T09:19:35.034Z,4.93
2023-05-12T09:22:29.170Z,4.68
2023-05-12T09:25:19.237Z,5.20
2023-05-12T09:28:04.948Z,4.63
2023-05-12T09:30:49.944Z,4.68
2023-05-12T09:33:36.649Z,5.10
2023-05-12T09:36:23.552Z,4.78
2023-05-12T09:39:10.332Z,4.47
2023-05-12T09:41:55.422Z,4.55
2023-05-12T09:44:41.474Z,5.55
2023-05-12T09:47:36.112Z,4.20
2023-05-12T09:50:22.705Z,4.57
2023-05-12T09:53:07.893Z,4.53
2023-05-12T09:55:53.217Z,4.65
2023-05-12T09:58:45.067Z,4.38
2023-05-12T10:01:30.445Z,4.55
2023-05-12T10:04:16.274Z,4.55
2023-05-12T10:07:01.339Z,4.78
2023-05-12T10:09:49.408Z,4.70
2023-05-12T10:12:35.916Z,4.70
2023-05-12T10:18:08.782Z,4.40
2023-05-12T10:23:41.378Z,3.65
2023-05-12T10:26:26.420Z,4.03
2023-05-12T10:29:12.712Z,4.05
2023-05-12T10:32:00.372Z,3.58
2023-05-12T10:34:45.527Z,3.75
2023-05-12T10:37:30.664Z,3.38
2023-05-12T10:40:25.462Z,3.45
2023-05-12T10:43:23.086Z,3.60
2023-05-12T10:46:10.041Z,2.85
2023-05-12T10:49:00.543Z,3.78
2023-05-12T10:51:45.768Z,3.90
2023-05-12T10:54:41.088Z,4.05
2023-05-12T10:57:26.899Z,3.42
2023-05-12T11:00:14.626Z,3.33
2023-05-12T11:03:08.186Z,3.15
2023-05-12T11:06:03.185Z,3.25
2023-05-12T11:08:48.951Z,3.65
2023-05-12T11:11:35.463Z,3.22
2023-05-12T11:14:21.005Z,3.45
2023-05-12T11:17:09.745Z,3.42
2023-05-12T11:19:55.505Z,3.13
2023-05-12T11:22:41.303Z,3.63
2023-05-12T11:25:28.247Z,3.47
2023-05-12T11:28:13.775Z,3.15
2023-05-12T11:30:58.975Z,3.30
2023-05-12T11:33:44.230Z,3.55
2023-05-12T11:36:29.618Z,3.22
2023-05-12T11:39:26.291Z,3.42
2023-05-12T11:42:13.493Z,2.95
2023-05-12T11:44:58.902Z,3.45
2023-05-12T11:47:44.113Z,3.38
2023-05-12T11:50:29.230Z,3.53
2023-05-12T11:53:17.201Z,3.50
2023-05-12T11:56:02.308Z,3.20
2023-05-12T11:58:58.415Z,3.63
2023-05-12T12:01:46.586Z,3.35
2023-05-12T12:04:40.576Z,3.25
2023-05-12T12:07:32.886Z,3.50
2023-05-12T12:10:19.157Z,3.40
2023-05-12T12:13:04.320Z,3.13
2023-05-12T12:15:50.161Z,3.50
2023-05-12T12:18:36.663Z,3.22
2023-05-12T12:21:24.028Z,3.33
2023-05-12T12:24:09.114Z,3.35
2023-05-12T12:26:54.295Z,3.47
2023-05-12T12:29:39.683Z,3.47
2023-05-12T12:32:24.973Z,3.40
2023-05-12T12:35:12.642Z,3.33
2023-05-12T12:37:58.213Z,3.30
2023-05-12T12:40:44.001Z,3.03
2023-05-12T12:43:29.093Z,3.28
2023-05-12T12:46:14.324Z,3.42
2023-05-12T12:48:59.567Z,3.97
2023-05-12T12:51:46.688Z,3.38
2023-05-12T12:54:32.790Z,3.33
2023-05-12T12:57:17.974Z,3.50
2023-05-12T13:00:04.517Z,3.50
2023-05-12T13:05:35.089Z,3.75
2023-05-12T13:08:20.988Z,3.58
2023-05-12T13:11:08.811Z,3.75
2023-05-12T13:13:54.720Z,4.03
2023-05-12T13:16:40.109Z,3.53
2023-05-12T13:19:25.161Z,3.58
2023-05-12T13:22:10.557Z,3.97
2023-05-12T13:24:55.983Z,3.90
2023-05-12T13:27:42.172Z,3.40
2023-05-12T13:30:28.371Z,3.67
2023-05-12T13:33:13.839Z,3.78
2023-05-12T13:35:59.070Z,4.13
2023-05-12T13:38:48.310Z,3.70
2023-05-12T13:41:33.846Z,3.67
2023-05-12T13:44:19.343Z,4.10
2023-05-12T13:47:07.660Z,3.78
2023-05-12T13:49:52.602Z,4.07
2023-05-12T13:52:37.766Z,3.42
2023-05-12T13:55:22.972Z,3.70
2023-05-12T13:58:08.149Z,3.60
2023-05-12T14:00:53.095Z,3.60
2023-05-12T14:03:38.616Z,3.42
2023-05-12T14:06:23.512Z,3.40
2023-05-12T14:09:08.862Z,3.42
2023-05-12T14:11:54.345Z,3.72
2023-05-12T14:14:39.716Z,3.60
2023-05-12T14:17:24.565Z,3.50
2023-05-12T14:20:09.918Z,3.45
2023-05-12T14:22:55.421Z,3.88
2023-05-12T14:25:41.101Z,3.30
2023-05-12T14:28:26.406Z,3.78
2023-05-12T14:31:12.114Z,3.00
2023-05-12T14:33:58.249Z,3.30
2023-05-12T14:36:43.568Z,3.40
2023-05-12T14:39:28.809Z,3.50
2023-05-12T14:42:14.312Z,3.47
2023-05-12T14:44:59.630Z,4.00
2023-05-12T14:47:44.893Z,3.58
2023-05-12T14:50:30.094Z,3.95
2023-05-12T14:53:15.387Z,3.60
2023-05-12T14:56:00.479Z,3.50
2023-05-12T14:58:45.973Z,3.38
2023-05-12T15:01:31.600Z,3.60
2023-05-12T15:04:16.628Z,3.40
2023-05-12T15:07:01.827Z,3.50
2023-05-12T15:09:46.508Z,3.78
2023-05-12T15:12:34.047Z,3.97
2023-05-12T15:15:19.429Z,3.90
2023-05-12T15:18:05.686Z,3.58
2023-05-12T15:20:51.444Z,3.70
2023-05-12T15:23:36.605Z,3.53
2023-05-12T15:26:33.017Z,3.65
2023-05-12T15:29:19.588Z,3.83
2023-05-12T15:32:04.950Z,3.67
2023-05-12T15:34:49.901Z,3.60
2023-05-12T15:37:35.282Z,3.20
2023-05-12T15:40:20.172Z,3.38
2023-05-12T15:43:05.521Z,3.72
2023-05-12T15:45:51.170Z,3.50
2023-05-12T15:48:36.384Z,3.95
2023-05-12T15:51:21.617Z,3.00
2023-05-12T15:54:08.529Z,3.38
2023-05-12T15:56:55.691Z,3.33
2023-05-12T15:59:40.878Z,3.35
2023-05-12T16:02:26.381Z,3.30
2023-05-12T16:05:12.059Z,3.53
2023-05-12T16:08:00.008Z,3.10
2023-05-12T16:10:45.276Z,2.92
2023-05-12T16:13:30.734Z,3.10
2023-05-12T16:16:15.928Z,3.15
2023-05-12T16:19:01.170Z,2.95
2023-05-12T16:21:46.006Z,3.47
2023-05-12T16:24:31.612Z,3.90
2023-05-12T16:27:17.831Z,3.60
2023-05-12T16:30:03.758Z,3.33
2023-05-12T16:32:49.264Z,3.72
2023-05-12T16:35:34.494Z,3.75
2023-05-12T16:38:19.425Z,3.42
2023-05-12T16:41:04.602Z,2.92
2023-05-12T16:43:49.596Z,3.47
2023-05-12T16:46:34.610Z,3.70
2023-05-12T16:49:19.999Z,3.13
2023-05-12T16:52:05.325Z,3.50
2023-05-12T16:54:50.639Z,3.28
2023-05-12T16:57:36.151Z,3.40
2023-05-12T17:00:21.774Z,3.38
2023-05-12T17:03:09.326Z,3.70
2023-05-12T17:05:54.557Z,3.53
2023-05-12T17:08:40.166Z,3.80
2023-05-12T17:11:25.979Z,3.63
2023-05-12T17:14:12.837Z,3.85
2023-05-12T17:17:00.019Z,3.63
2023-05-12T17:19:46.098Z,3.58
2023-05-12T17:22:32.354Z,3.75
2023-05-12T17:25:19.351Z,3.45
2023-05-12T17:28:05.053Z,3.08
2023-05-12T17:30:53.016Z,3.75
2023-05-12T17:33:40.689Z,3.58
2023-05-12T17:36:25.885Z,3.58
2023-05-12T17:39:14.363Z,3.60
2023-05-12T17:42:00.801Z,3.42
2023-05-12T17:44:47.956Z,3.72
2023-05-12T17:47:32.987Z,3.55
2023-05-12T17:50:20.015Z,3.50
2023-05-12T17:53:06.612Z,3.38
2023-05-12T17:55:51.783Z,3.55
2023-05-12T17:58:37.301Z,3.13
2023-05-12T18:01:22.500Z,3.20
2023-05-12T18:04:07.582Z,3.13
2023-05-12T18:06:54.935Z,3.30
2023-05-12T18:09:40.287Z,3.55
2023-05-12T18:12:25.931Z,3.45
2023-05-12T18:15:11.242Z,3.13
2023-05-12T18:17:57.857Z,3.50
2023-05-12T18:23:28.099Z,3.58
2023-05-12T18:26:13.109Z,3.40
2023-05-12T18:28:58.035Z,3.08
2023-05-12T18:31:44.576Z,3.55
2023-05-12T18:34:30.711Z,3.53
2023-05-12T18:37:17.542Z,3.45
2023-05-12T18:40:02.703Z,3.00
2023-05-12T18:42:47.477Z,3.60
2023-05-12T18:45:36.703Z,3.35
2023-05-12T18:48:21.615Z,3.58
2023-05-12T18:51:07.045Z,3.35
2023-05-12T18:53:52.272Z,3.47
2023-05-12T18:56:40.011Z,3.35
2023-05-12T18:59:25.102Z,3.53
2023-05-12T19:02:10.771Z,3.40
2023-05-12T19:04:56.486Z,3.42
2023-05-12T19:07:41.794Z,3.38
2023-05-12T19:10:29.043Z,3.30
2023-05-12T19:13:15.017Z,3.08
2023-05-12T19:16:02.751Z,3.60
2023-05-12T19:18:49.013Z,3.10
2023-05-12T19:21:35.375Z,3.50
2023-05-12T19:24:25.123Z,3.45
2023-05-12T19:27:11.587Z,3.38
2023-05-12T19:29:57.912Z,3.50
2023-05-12T19:32:46.533Z,3.60
2023-05-12T19:35:33.494Z,3.40
2023-05-12T19:38:19.288Z,3.35
2023-05-12T19:41:04.333Z,3.13
2023-05-12T19:43:49.607Z,4.07
2023-05-12T19:46:38.240Z,3.53
2023-05-12T19:49:23.456Z,3.97
2023-05-12T19:52:10.093Z,3.50
2023-05-12T19:54:59.150Z,3.50
2023-05-12T19:57:46.962Z,3.72
2023-05-12T20:00:31.931Z,3.90
2023-05-12T20:03:18.610Z,3.72
2023-05-12T20:06:04.677Z,3.70
2023-05-12T20:08:51.186Z,3.45
2023-05-12T20:11:38.594Z,3.90
2023-05-12T20:14:23.587Z,3.58
2023-05-12T20:17:10.522Z,3.67
2023-05-12T20:19:56.858Z,3.50
2023-05-12T20:22:43.098Z,4.07
2023-05-12T20:25:31.610Z,3.42
2023-05-12T20:28:17.907Z,3.40
2023-05-12T20:31:03.291Z,3.67
2023-05-12T20:33:48.517Z,4.00
2023-05-12T20:36:33.726Z,3.38
2023-05-12T20:39:18.640Z,3.88
2023-05-12T20:42:05.960Z,3.70
2023-05-12T20:44:52.374Z,3.50
2023-05-12T20:47:38.904Z,3.83
2023-05-12T20:50:26.524Z,4.40
2023-05-12T20:55:58.140Z,3.65
2023-05-12T20:58:43.510Z,3.92
2023-05-12T21:01:28.503Z,3.85
2023-05-12T21:04:13.566Z,3.65
2023-05-12T21:07:01.358Z,3.50
2023-05-12T21:09:47.679Z,3.95
2023-05-12T21:12:32.570Z,3.83
2023-05-12T21:15:17.792Z,4.00
2023-05-12T21:18:07.215Z,4.40
2023-05-12T21:20:52.253Z,4.03
2023-05-12T21:23:40.893Z,3.70
2023-05-12T21:26:26.689Z,3.80
2023-05-12T21:29:12.832Z,4.28
2023-05-12T21:31:57.819Z,3.78
2023-05-12T21:34:43.378Z,4.28
2023-05-12T21:37:32.966Z,3.65
2023-05-12T21:40:20.669Z,4.50
2023-05-12T21:43:05.949Z,3.92
2023-05-12T21:45:50.819Z,4.75
2023-05-12T21:48:35.962Z,4.50
2023-05-12T21:51:21.020Z,4.55
2023-05-12T21:54:06.219Z,4.00
2023-05-12T21:56:51.236Z,4.32
2023-05-12T21:59:36.958Z,4.63
2023-05-12T22:02:22.300Z,4.22
2023-05-12T22:05:08.162Z,4.57
2023-05-12T22:07:53.373Z,4.45
2023-05-12T22:10:39.153Z,4.72
2023-05-12T22:13:23.957Z,4.15
2023-05-12T22:16:08.949Z,4.25
2023-05-12T22:18:53.742Z,4.80
2023-05-12T22:21:38.593Z,4.65
2023-05-12T22:24:23.573Z,4.95
2023-05-12T22:27:08.586Z,4.43
2023-05-12T22:29:55.814Z,4.07
2023-05-12T22:32:40.734Z,4.15
2023-05-12T22:35:25.658Z,4.35
2023-05-12T22:38:11.829Z,3.92
2023-05-12T22:40:56.962Z,4.53
2023-05-12T22:43:41.732Z,4.15
2023-05-12T22:46:26.606Z,4.93
2023-05-12T22:49:12.450Z,4.13
2023-05-12T22:51:57.517Z,3.83
2023-05-12T22:54:43.063Z,4.10
2023-05-12T22:57:27.829Z,3.90
2023-05-12T23:00:14.086Z,4.53
2023-05-12T23:02:59.998Z,5.03
2023-05-12T23:05:45.146Z,4.13
2023-05-12T23:08:30.308Z,4.72
2023-05-12T23:11:15.821Z,4.53
2023-05-12T23:14:00.890Z,4.60
2023-05-12T23:16:47.905Z,5.32
2023-05-12T23:19:33.327Z,4.15
2023-05-12T23:22:18.148Z,4.60
2023-05-12T23:25:03.427Z,4.30
2023-05-12T23:27:48.397Z,4.45
2023-05-12T23:30:33.737Z,4.60
2023-05-12T23:33:18.484Z,4.32
2023-05-12T23:36:03.670Z,4.45
2023-05-12T23:38:53.450Z,4.05
2023-05-12T23:41:38.714Z,4.90
2023-05-12T23:44:23.632Z,5.22
2023-05-12T23:47:09.250Z,4.18
2023-05-12T23:49:54.188Z,4.40
2023-05-12T23:52:38.935Z,5.00
2023-05-12T23:55:23.963Z,3.78
2023-05-12T23:58:10.627Z,4.60
